• Join FlightAware (Why Join?)
  • Login
  • US Flag 
12:14PM EDT


 

Airport Tracker/Info


-or-


 

Live Flight TrackerFlight Track Log ✈ FLG4222 ✈ 2013年 09月 30日 ✈ KDTW - KBGM

Flight Track Log - Related Links

Times and Time Zones

All times are in EDT time to prevent confusion due to time zone crossing. See the FLG4222 flight status page for this flight to view local times or setup timezone preferences in your user account.

Time Position Orientation Groundspeed Altitude Reporting Facility
EDT Latitude Longitude Course Direction KTS MPH feet Rate Location/Type
10:08AM 42.2281 -83.3533 35° Northeast 165 190 1,200  Level Cleveland Center
10:10AM 42.2778 -83.3067 35° Northeast 214 246 3,500 1,800 Climbing Cleveland Center
10:10AM 42.2786 -83.3047 60° Northeast 207 238 3,700 1,980 Climbing Cleveland Center
10:11AM 42.3211 -83.2144 57° Northeast 263 303 6,100 2,460 Climbing Cleveland Center
10:11AM 42.3233 -83.1494 87° East 284 327 7,800 2,580 Climbing Cleveland Center
10:12AM 42.3236 -83.1047 90° East 286 329 8,800 2,340 Climbing Cleveland Center
10:12AM 42.3261 -83.0283 87° East 301 346 10,200 1,740 Climbing Cleveland Center
10:13AM 42.3267 -82.9878 89° East 304 350 10,600 1,920 Climbing Cleveland Center
10:13AM 42.3297 -82.8989 87° East 349 402 12,200 1,980 Climbing Cleveland Center
10:14AM 42.3300 -82.8578 89° East 337 388 12,700 540 Climbing Cleveland Center
10:15AM 42.3325 -82.7236 89° East 353 406 13,000 720 Climbing Cleveland Center
10:16AM 42.3436 -82.5844 84° East 368 423 14,300 1,500 Climbing Cleveland Center
10:17AM 42.3661 -82.4119 80° East 389 448 16,100 1,440 Climbing Cleveland Center
10:18AM 42.3586 -82.2653 94° East 391 450 17,300 1,140 Climbing Cleveland Center
10:19AM 42.3525 -82.1119 93° East 399 459 18,500 1,140 Climbing Cleveland Center
10:20AM 42.3467 -81.9606 93° East 399 459 19,700 1,020 Climbing Cleveland Center
10:21AM 42.3394 -81.8089 94° East 401 461 20,700 960 Climbing Cleveland Center
10:22AM 42.3333 -81.6550 93° East 405 466 21,700 900 Climbing Cleveland Center
10:23AM 42.3256 -81.5036 94° East 402 463 22,600 720 Climbing Cleveland Center
10:24AM 42.3186 -81.3467 93° East 411 473 23,300 720 Climbing Cleveland Center
10:25AM 42.3092 -81.1639 94° East 414 476 24,100 720 Climbing Cleveland Center
10:26AM 42.3014 -81.0072 94° East 414 476 24,900 660 Climbing Cleveland Center
10:27AM 42.2933 -80.8478 94° East 419 482 25,500 600 Climbing Cleveland Center
10:28AM 42.2928 -80.6889 90° East 420 483 26,200 660 Climbing Cleveland Center
10:29AM 42.2953 -80.5322 89° East 417 480 26,900 660 Climbing Cleveland Center
10:30AM 42.2936 -80.3744 91° East 417 480 27,600 720 Climbing Cleveland Center
10:31AM 42.2936 -80.2167 90° East 417 480 28,400 660 Climbing Cleveland Center
10:33AM 42.2942 -80.0600 90° East 414 476 29,000 240 Climbing Cleveland Center
10:34AM 42.2917 -79.8978 91° East 426 490 29,000 -420 Level Cleveland Center
10:35AM 42.2914 -79.7025 90° East 437 503 28,200 -1,680 Descending Cleveland Center
10:36AM 42.2906 -79.5422 90° East 429 494 25,600 -1,560 Descending Cleveland Center
10:37AM 42.2903 -79.3867 90° East 420 483 25,000 -300 Descending Cleveland Center
10:38AM 42.2881 -79.2303 91° East 420 483 25,000  Level Cleveland Center
10:39AM 42.2864 -79.0722 91° East 421 484 25,000  Level Cleveland Center
10:40AM 42.2831 -78.8911 91° East 424 488 25,000  Level Cleveland Center
10:41AM 42.2819 -78.7336 90° East 422 486 25,000  Level Cleveland Center
10:42AM 42.2797 -78.5742 91° East 426 490 25,000  Level Cleveland Center
10:43AM 42.2764 -78.4144 92° East 427 491 25,000  Level Cleveland Center
10:44AM 42.2736 -78.2228 91° East 428 493 25,000 -480 Level Cleveland Center
10:45AM 42.2708 -78.0628 91° East 429 494 24,100 -960 Descending Cleveland Center
10:46AM 42.2669 -77.9058 92° East 427 491 23,100 -1,020 Descending Cleveland Center
10:47AM 42.2633 -77.7531 92° East 416 479 22,100 -1,020 Descending Cleveland Center
10:48AM 42.2603 -77.6011 92° East 412 474 21,100 -1,080 Descending Cleveland Center
10:49AM 42.2553 -77.4219 92° East 404 465 19,900 -1,080 Descending Cleveland Center
10:50AM 42.2519 -77.2747 92° East 399 459 18,900 -1,020 Descending Cleveland Center
10:51AM 42.2453 -77.1183 93° East 399 459 17,900 -1,500 Descending New York Center
10:52AM 42.2417 -76.9892 92° East 391 450 16,000 -2,220 Descending New York Center
10:53AM 42.2383 -76.8489 92° East 385 443 13,500 -2,220 Descending New York Center
10:54AM 42.2306 -76.7136 94° East 374 430 11,600 -1,740 Descending New York Center
10:55AM 42.2394 -76.5700 85° East 316 364 9,800 -1,620 Descending Cleveland Center
10:56AM 42.2608 -76.4667 74° East 288 331 8,100 -1,500 Descending Cleveland Center
10:57AM 42.2772 -76.3714 77° East 280 322 6,700 -1,500 Descending Cleveland Center
10:58AM 42.2886 -76.2872 80° East 277 319 5,500 -1,440 Descending New York Center
10:59AM 42.2928 -76.1950 86° East 266 306 4,200 -780 Descending New York Center
11:00AM 42.2925 -76.1108 90° East 241 277 4,000 -540 Descending New York Center
11:01AM 42.2789 -76.0453 106° East 208 239 3,200 -900 Descending New York Center
11:02AM 42.2411 -76.0058 142° Southeast 177 204 2,300 -600 Descending New York Center
11:03AM 42.2186 -75.9453 117° Southeast 168 193 2,100 -240 Descending New York Center